Time;durP1;ratioP1;P1;durP2;ratioP2;P2;SDS_P1;SDS_P2;PMS_P1;PMS_P2;Temp;Humidity;BMP_temperature;BMP_pressure;BME280_temperature;BME280_humidity;BME280_pressure;Samples;Min_cycle;Max_cycle;Signal;HPM_P1;HPM_P2
2022/07/12 00:00:22;;;;;;;2.35;1.63;;;;;;;;;;5039050;28;20041;-64
2022/07/12 00:02:47;;;;;;;1.73;1.63;;;;;;;;;;5053161;28;20425;-63
2022/07/12 00:05:12;;;;;;;1.83;1.73;;;;;;;;;;5035658;28;20034;-63
2022/07/12 00:07:38;;;;;;;1.70;1.60;;;;;;;;;;5055348;28;20098;-63
2022/07/12 00:10:04;;;;;;;2.42;2.22;;;;;;;;;;5036662;28;20543;-64
2022/07/12 00:12:29;;;;;;;1.67;1.58;;;;;;;;;;5054404;28;20032;-65
2022/07/12 00:14:54;;;;;;;2.42;2.25;;;;;;;;;;5034933;28;20486;-64
2022/07/12 00:17:20;;;;;;;1.80;1.40;;;;;;;;;;5054020;28;20052;-63
2022/07/12 00:19:46;;;;;;;2.60;1.70;;;;;;;;;;5053953;28;20029;-62
2022/07/12 00:22:11;;;;;;;2.20;1.67;;;;;;;;;;5054478;28;20121;-63
2022/07/12 00:24:36;;;;;;;1.83;1.73;;;;;;;;;;5052343;28;20721;-63
2022/07/12 00:27:01;;;;;;;2.95;1.60;;;;;;;;;;5054042;28;20590;-64
2022/07/12 00:29:26;;;;;;;1.88;1.77;;;;;;;;;;5036702;28;20071;-63
2022/07/12 00:31:52;;;;;;;2.42;1.38;;;;;;;;;;5037056;28;20475;-63
2022/07/12 00:34:17;;;;;;;2.38;2.17;;;;;;;;;;5052713;28;20025;-64
2022/07/12 00:36:42;;;;;;;1.75;1.65;;;;;;;;;;5053848;28;20612;-63
2022/07/12 00:39:08;;;;;;;1.70;1.60;;;;;;;;;;5053759;28;20110;-63
2022/07/12 00:41:33;;;;;;;2.03;1.55;;;;;;;;;;5052546;28;20028;-63
2022/07/12 00:43:58;;;;;;;1.85;1.60;;;;;;;;;;5051752;28;20025;-63
2022/07/12 00:46:24;;;;;;;4.90;2.30;;;;;;;;;;5034565;28;20434;-63
2022/07/12 00:48:51;;;;;;;2.03;1.67;;;;;;;;;;5052746;28;20024;-67
2022/07/12 00:51:17;;;;;;;1.85;1.75;;;;;;;;;;5052893;28;20390;-63
2022/07/12 00:53:42;;;;;;;2.13;2.03;;;;;;;;;;5053698;28;20541;-63
2022/07/12 00:56:07;;;;;;;1.80;1.70;;;;;;;;;;5054266;28;20044;-64
2022/07/12 00:58:33;;;;;;;2.00;1.90;;;;;;;;;;5035384;28;20021;-64
2022/07/12 01:00:58;;;;;;;1.70;1.60;;;;;;;;;;5052615;28;20060;-64
2022/07/12 01:03:24;;;;;;;1.75;1.65;;;;;;;;;;5052521;28;20099;-64
2022/07/12 01:05:49;;;;;;;1.67;1.65;;;;;;;;;;5051090;28;20033;-64
2022/07/12 01:08:15;;;;;;;3.40;1.90;;;;;;;;;;5052391;28;20155;-64
2022/07/12 01:10:40;;;;;;;2.30;1.63;;;;;;;;;;5053239;28;20033;-64
2022/07/12 01:13:06;;;;;;;3.30;1.90;;;;;;;;;;5052142;28;20135;-64
2022/07/12 01:15:31;;;;;;;1.90;1.80;;;;;;;;;;5053355;28;20379;-64
2022/07/12 01:17:58;;;;;;;2.15;1.48;;;;;;;;;;5052893;28;20067;-64
2022/07/12 01:20:23;;;;;;;1.63;1.52;;;;;;;;;;5051889;28;20032;-64
2022/07/12 01:22:53;;;;;;;1.77;1.67;;;;;;;;;;5053034;28;20057;-64
2022/07/12 01:25:18;;;;;;;1.80;1.70;;;;;;;;;;5052577;28;20047;-65
2022/07/12 01:27:43;;;;;;;3.15;1.75;;;;;;;;;;5038028;28;20358;-64
2022/07/12 01:30:09;;;;;;;1.55;1.45;;;;;;;;;;5051014;28;20577;-65
2022/07/12 01:32:34;;;;;;;2.03;1.92;;;;;;;;;;5054378;28;20029;-64
2022/07/12 01:35:00;;;;;;;1.65;1.55;;;;;;;;;;5051828;28;20523;-64
2022/07/12 01:37:30;;;;;;;1.60;1.50;;;;;;;;;;5051677;28;20032;-64
2022/07/12 01:39:56;;;;;;;2.22;2.13;;;;;;;;;;5052222;28;20039;-64
2022/07/12 01:42:23;;;;;;;2.53;1.70;;;;;;;;;;5052435;28;20080;-64
2022/07/12 01:45:13;;;;;;;2.13;1.30;;;;;;;;;;5059532;28;20067;-65
2022/07/12 01:47:39;;;;;;;1.67;1.58;;;;;;;;;;5052998;28;20037;-64
2022/07/12 01:50:05;;;;;;;1.83;1.73;;;;;;;;;;5052204;28;20037;-64
2022/07/12 01:52:31;;;;;;;1.92;1.80;;;;;;;;;;5033865;28;20037;-64
2022/07/12 01:54:57;;;;;;;1.52;1.42;;;;;;;;;;5052921;28;20670;-64
2022/07/12 01:57:22;;;;;;;1.40;1.40;;;;;;;;;;5053949;28;20074;-62
2022/07/12 01:59:48;;;;;;;1.40;1.40;;;;;;;;;;5034140;28;20562;-64
2022/07/12 02:02:13;;;;;;;2.85;1.70;;;;;;;;;;5033751;28;20454;-64
2022/07/12 02:04:38;;;;;;;1.80;1.70;;;;;;;;;;5052215;28;20044;-63
2022/07/12 02:07:04;;;;;;;1.30;1.30;;;;;;;;;;5052882;28;20045;-63
2022/07/12 02:09:29;;;;;;;3.67;2.10;;;;;;;;;;5051397;28;20017;-65
2022/07/12 02:11:54;;;;;;;2.65;1.90;;;;;;;;;;5051029;28;20091;-64
2022/07/12 02:14:20;;;;;;;3.00;2.35;;;;;;;;;;5052110;28;20151;-65
2022/07/12 02:16:45;;;;;;;1.70;1.60;;;;;;;;;;5050617;28;20124;-64
2022/07/12 02:19:11;;;;;;;1.55;1.45;;;;;;;;;;5051557;28;20116;-64
2022/07/12 02:21:36;;;;;;;1.80;1.63;;;;;;;;;;5050024;28;20029;-63
2022/07/12 02:24:02;;;;;;;1.90;1.80;;;;;;;;;;5050268;28;20025;-62
2022/07/12 02:26:27;;;;;;;2.00;1.80;;;;;;;;;;5033440;28;20032;-62
2022/07/12 02:28:53;;;;;;;2.33;1.90;;;;;;;;;;5052411;28;20466;-63
2022/07/12 02:31:18;;;;;;;1.75;1.52;;;;;;;;;;5052118;28;20691;-63
2022/07/12 02:33:43;;;;;;;1.58;1.48;;;;;;;;;;5051637;28;20029;-64
2022/07/12 02:36:09;;;;;;;1.60;1.50;;;;;;;;;;5051446;28;20104;-64
2022/07/12 02:38:34;;;;;;;1.80;1.70;;;;;;;;;;5051930;28;20476;-64
2022/07/12 02:40:59;;;;;;;2.85;1.77;;;;;;;;;;5051978;28;20397;-63
2022/07/12 02:43:26;;;;;;;1.98;1.75;;;;;;;;;;5051349;28;20097;-64
2022/07/12 02:45:56;;;;;;;1.70;1.60;;;;;;;;;;5050670;28;20071;-63
2022/07/12 02:48:22;;;;;;;2.50;1.67;;;;;;;;;;5053537;28;20028;-64
2022/07/12 02:50:48;;;;;;;1.60;1.50;;;;;;;;;;5036602;28;20352;-64
2022/07/12 02:53:14;;;;;;;2.28;1.70;;;;;;;;;;5051649;28;20035;-64
2022/07/12 02:55:39;;;;;;;1.92;1.83;;;;;;;;;;5050154;28;20021;-65
2022/07/12 02:58:07;;;;;;;1.83;1.73;;;;;;;;;;5051967;28;20029;-64
2022/07/12 03:00:33;;;;;;;2.03;1.92;;;;;;;;;;5052235;28;20025;-63
2022/07/12 03:02:58;;;;;;;1.80;1.70;;;;;;;;;;5050589;28;20029;-65
2022/07/12 03:05:24;;;;;;;1.92;1.80;;;;;;;;;;5050897;28;20056;-64
2022/07/12 03:07:49;;;;;;;2.00;1.90;;;;;;;;;;5050971;28;20086;-64
2022/07/12 03:10:16;;;;;;;2.20;2.10;;;;;;;;;;5050218;28;20401;-64
2022/07/12 03:12:42;;;;;;;1.80;1.70;;;;;;;;;;5052337;28;20035;-64
2022/07/12 03:15:07;;;;;;;3.88;2.00;;;;;;;;;;5036971;28;20037;-64
2022/07/12 03:17:33;;;;;;;1.92;1.80;;;;;;;;;;5052066;28;20028;-64
2022/07/12 03:19:58;;;;;;;1.70;1.60;;;;;;;;;;5052106;28;20104;-64
2022/07/12 03:22:23;;;;;;;1.67;1.58;;;;;;;;;;5053224;28;20033;-64
2022/07/12 03:24:49;;;;;;;2.47;1.77;;;;;;;;;;5049829;28;20025;-64
2022/07/12 03:27:14;;;;;;;2.85;2.10;;;;;;;;;;5051297;28;20052;-64
2022/07/12 03:29:39;;;;;;;1.90;1.80;;;;;;;;;;5056177;28;20044;-63
2022/07/12 03:32:06;;;;;;;2.03;1.80;;;;;;;;;;5054935;28;20067;-64
2022/07/12 03:34:31;;;;;;;2.60;1.83;;;;;;;;;;5054722;28;20052;-63
2022/07/12 03:36:56;;;;;;;1.67;1.58;;;;;;;;;;5055098;28;20171;-64
2022/07/12 03:39:21;;;;;;;2.08;1.90;;;;;;;;;;5054131;28;20060;-63
2022/07/12 03:41:47;;;;;;;1.48;1.38;;;;;;;;;;5055792;28;20501;-63
2022/07/12 03:44:12;;;;;;;3.75;1.75;;;;;;;;;;5053923;28;20610;-63
2022/07/12 03:46:37;;;;;;;2.03;1.92;;;;;;;;;;5054458;28;20470;-63
2022/07/12 03:49:02;;;;;;;1.70;1.65;;;;;;;;;;5053737;28;20029;-64
2022/07/12 03:51:28;;;;;;;2.03;1.83;;;;;;;;;;5052185;28;20095;-63
2022/07/12 03:53:53;;;;;;;2.55;2.35;;;;;;;;;;5052876;28;20016;-63
2022/07/12 03:59:02;;;;;;;2.35;1.42;;;;;;;;;;5054284;28;20079;-63
2022/07/12 04:01:27;;;;;;;2.40;1.58;;;;;;;;;;5055135;28;20036;-63
2022/07/12 04:03:53;;;;;;;2.00;1.90;;;;;;;;;;5054270;28;20467;-63
2022/07/12 04:06:18;;;;;;;2.28;1.70;;;;;;;;;;5054083;28;20112;-63
2022/07/12 04:08:43;;;;;;;2.13;1.90;;;;;;;;;;5054019;28;20538;-63
2022/07/12 04:11:08;;;;;;;1.98;1.58;;;;;;;;;;5054111;28;20498;-63
2022/07/12 04:13:34;;;;;;;4.88;1.70;;;;;;;;;;5053774;28;20450;-63
2022/07/12 04:15:59;;;;;;;1.65;1.55;;;;;;;;;;5055536;28;20934;-64
2022/07/12 04:18:24;;;;;;;1.67;1.58;;;;;;;;;;5053965;28;20494;-63
2022/07/12 04:20:49;;;;;;;1.90;1.80;;;;;;;;;;5054618;28;20533;-63
2022/07/12 04:23:14;;;;;;;2.55;1.88;;;;;;;;;;5053239;28;20029;-63
2022/07/12 04:25:40;;;;;;;3.28;1.88;;;;;;;;;;5053508;28;20547;-63
2022/07/12 04:28:05;;;;;;;4.15;2.35;;;;;;;;;;5055160;28;20028;-63
2022/07/12 04:30:30;;;;;;;2.30;1.95;;;;;;;;;;5052992;28;20028;-63
2022/07/12 04:32:56;;;;;;;2.63;1.60;;;;;;;;;;5054921;28;20570;-65
2022/07/12 04:35:21;;;;;;;2.30;2.20;;;;;;;;;;5052364;28;20331;-63
2022/07/12 04:37:46;;;;;;;2.13;1.92;;;;;;;;;;5054587;28;20155;-63
2022/07/12 04:40:11;;;;;;;3.42;2.20;;;;;;;;;;5052754;28;20471;-63
2022/07/12 04:42:37;;;;;;;3.65;2.47;;;;;;;;;;5022527;28;20137;-63
2022/07/12 04:45:02;;;;;;;2.00;1.90;;;;;;;;;;5054851;28;20033;-62
2022/07/12 04:47:28;;;;;;;2.17;1.98;;;;;;;;;;5052763;28;20549;-63
2022/07/12 04:49:53;;;;;;;3.70;2.20;;;;;;;;;;5053751;28;20017;-63
2022/07/12 04:52:18;;;;;;;2.20;2.10;;;;;;;;;;5054114;28;20032;-63
2022/07/12 04:54:43;;;;;;;2.55;1.95;;;;;;;;;;5052775;28;20044;-63
2022/07/12 04:57:09;;;;;;;2.13;1.98;;;;;;;;;;5052377;28;20029;-63
2022/07/12 04:59:34;;;;;;;6.35;2.13;;;;;;;;;;5053563;28;20491;-64
2022/07/12 05:02:00;;;;;;;7.60;2.65;;;;;;;;;;5052819;28;20033;-64
2022/07/12 05:04:26;;;;;;;5.70;2.38;;;;;;;;;;5053198;28;20032;-64
2022/07/12 05:06:52;;;;;;;3.75;2.28;;;;;;;;;;5052954;28;20032;-64
2022/07/12 05:09:17;;;;;;;2.25;2.05;;;;;;;;;;5053276;28;20059;-64
2022/07/12 05:11:42;;;;;;;2.08;1.98;;;;;;;;;;5052906;28;20151;-64
2022/07/12 05:14:07;;;;;;;2.38;2.20;;;;;;;;;;5054504;28;20037;-64
2022/07/12 05:16:33;;;;;;;4.13;2.15;;;;;;;;;;5053075;28;20084;-63
2022/07/12 05:18:59;;;;;;;2.58;2.20;;;;;;;;;;5053129;28;20093;-63
2022/07/12 05:21:24;;;;;;;6.00;2.88;;;;;;;;;;5051748;28;20032;-63
2022/07/12 05:23:49;;;;;;;3.22;2.45;;;;;;;;;;5052907;28;20025;-64
2022/07/12 05:26:14;;;;;;;2.08;1.98;;;;;;;;;;5052752;28;20402;-63
2022/07/12 05:28:40;;;;;;;2.13;1.92;;;;;;;;;;5051579;28;20029;-64
2022/07/12 05:31:05;;;;;;;3.13;2.35;;;;;;;;;;5051432;28;20035;-65
2022/07/12 05:33:30;;;;;;;2.40;2.30;;;;;;;;;;5044221;28;20642;-63
2022/07/12 05:35:56;;;;;;;2.28;2.15;;;;;;;;;;5052971;28;20020;-64
2022/07/12 05:38:21;;;;;;;2.38;2.17;;;;;;;;;;5052689;28;20072;-64
2022/07/12 05:40:46;;;;;;;2.60;2.40;;;;;;;;;;5036899;28;20440;-63
2022/07/12 05:43:11;;;;;;;2.50;2.40;;;;;;;;;;5052345;28;20101;-63
2022/07/12 05:45:37;;;;;;;2.35;1.95;;;;;;;;;;5052674;28;20037;-63
2022/07/12 05:48:02;;;;;;;5.25;2.45;;;;;;;;;;5051829;28;20024;-63
2022/07/12 05:50:28;;;;;;;2.13;1.92;;;;;;;;;;5050782;28;20035;-63
2022/07/12 05:55:37;;;;;;;2.78;2.58;;;;;;;;;;5050776;28;20492;-63
2022/07/12 05:58:03;;;;;;;2.45;2.25;;;;;;;;;;5053263;28;20028;-65
2022/07/12 06:00:28;;;;;;;2.50;2.25;;;;;;;;;;5032469;28;20486;-64
2022/07/12 06:02:53;;;;;;;2.35;2.20;;;;;;;;;;5053520;28;20543;-64
2022/07/12 06:05:19;;;;;;;2.50;2.30;;;;;;;;;;5052275;28;20036;-64
2022/07/12 06:07:44;;;;;;;4.00;2.90;;;;;;;;;;5055323;28;20603;-64
2022/07/12 06:10:09;;;;;;;2.00;1.90;;;;;;;;;;5051301;28;20542;-66
2022/07/12 06:12:34;;;;;;;2.83;2.38;;;;;;;;;;5051749;28;20484;-64
2022/07/12 06:15:00;;;;;;;2.28;2.17;;;;;;;;;;5036325;28;20490;-63
2022/07/12 06:17:25;;;;;;;4.60;2.30;;;;;;;;;;5053053;28;20311;-64
2022/07/12 06:19:51;;;;;;;3.97;2.17;;;;;;;;;;5052265;28;20082;-64
2022/07/12 06:22:16;;;;;;;2.47;2.20;;;;;;;;;;5052006;28;20481;-63
2022/07/12 06:24:41;;;;;;;2.38;1.90;;;;;;;;;;5052051;28;20040;-63
2022/07/12 06:27:08;;;;;;;2.15;2.05;;;;;;;;;;5037258;28;20057;-63
2022/07/12 06:29:33;;;;;;;3.75;1.75;;;;;;;;;;5053395;28;20122;-63
2022/07/12 06:31:58;;;;;;;3.83;1.70;;;;;;;;;;5037352;28;20429;-67
2022/07/12 06:34:24;;;;;;;2.40;1.65;;;;;;;;;;5051681;28;20488;-64
2022/07/12 06:36:49;;;;;;;2.28;2.08;;;;;;;;;;5052231;28;20119;-64
2022/07/12 06:39:14;;;;;;;1.90;1.80;;;;;;;;;;5051913;28;20457;-64
2022/07/12 06:41:39;;;;;;;1.45;1.35;;;;;;;;;;5050694;28;20086;-63
2022/07/12 06:44:05;;;;;;;2.38;2.17;;;;;;;;;;5052719;28;20463;-63
2022/07/12 06:46:30;;;;;;;2.85;1.67;;;;;;;;;;5034562;28;20838;-64
2022/07/12 06:48:55;;;;;;;1.92;1.50;;;;;;;;;;5033258;28;20469;-63
2022/07/12 06:51:20;;;;;;;4.15;2.05;;;;;;;;;;5032673;28;20036;-64
2022/07/12 06:53:46;;;;;;;1.95;1.85;;;;;;;;;;5051143;28;20582;-64
2022/07/12 06:56:11;;;;;;;1.80;1.67;;;;;;;;;;5052892;28;20558;-64
2022/07/12 06:58:36;;;;;;;1.90;1.80;;;;;;;;;;5051337;28;20474;-63
2022/07/12 07:01:01;;;;;;;2.10;1.88;;;;;;;;;;5051673;28;20038;-63
2022/07/12 07:03:27;;;;;;;1.73;1.63;;;;;;;;;;5054174;28;20041;-63
2022/07/12 07:05:52;;;;;;;1.70;1.60;;;;;;;;;;5055217;28;20033;-64
2022/07/12 07:08:17;;;;;;;4.78;1.60;;;;;;;;;;5055394;28;20154;-63
2022/07/12 07:10:42;;;;;;;1.50;1.40;;;;;;;;;;5036766;28;20383;-64
2022/07/12 07:13:10;;;;;;;1.42;1.42;;;;;;;;;;5055764;28;20036;-65
2022/07/12 07:15:35;;;;;;;1.60;1.35;;;;;;;;;;5039523;28;20024;-64
2022/07/12 07:18:01;;;;;;;2.22;1.10;;;;;;;;;;5054918;28;20029;-63
2022/07/12 07:20:26;;;;;;;1.90;1.70;;;;;;;;;;5054583;28;20029;-64
2022/07/12 07:22:51;;;;;;;1.58;1.40;;;;;;;;;;5054855;28;20033;-63
2022/07/12 07:25:16;;;;;;;2.92;1.60;;;;;;;;;;5054986;28;20505;-64
2022/07/12 07:27:44;;;;;;;1.45;1.35;;;;;;;;;;5054549;28;20028;-63
2022/07/12 07:33:13;;;;;;;2.05;1.40;;;;;;;;;;4984516;28;20038;-65
2022/07/12 07:35:38;;;;;;;1.25;1.15;;;;;;;;;;4984073;28;20076;-64
2022/07/12 07:38:03;;;;;;;3.55;1.10;;;;;;;;;;4996691;28;20054;-64
2022/07/12 07:40:29;;;;;;;4.15;1.23;;;;;;;;;;5022800;28;20040;-64
2022/07/12 07:42:54;;;;;;;1.40;1.30;;;;;;;;;;5006833;28;20037;-64
2022/07/12 07:45:19;;;;;;;1.50;1.40;;;;;;;;;;5023162;28;20037;-63
2022/07/12 07:47:48;;;;;;;4.00;1.38;;;;;;;;;;5023392;28;20445;-65
2022/07/12 07:50:14;;;;;;;1.98;1.20;;;;;;;;;;5022958;28;20095;-65
2022/07/12 07:52:39;;;;;;;1.80;1.30;;;;;;;;;;5023095;28;20037;-65
2022/07/12 07:55:04;;;;;;;1.33;1.20;;;;;;;;;;5022981;28;20032;-64
2022/07/12 07:57:30;;;;;;;1.80;1.67;;;;;;;;;;5023193;28;20503;-64
2022/07/12 07:59:55;;;;;;;1.35;1.17;;;;;;;;;;5022567;28;20439;-64
2022/07/12 08:02:20;;;;;;;1.35;1.15;;;;;;;;;;5022632;28;20037;-64
2022/07/12 08:04:45;;;;;;;1.42;1.20;;;;;;;;;;5064721;28;20068;-64
2022/07/12 08:07:11;;;;;;;1.40;1.33;;;;;;;;;;5073220;28;20020;-64
2022/07/12 08:09:36;;;;;;;1.10;1.10;;;;;;;;;;5074608;28;20258;-65
2022/07/12 08:12:01;;;;;;;2.97;1.40;;;;;;;;;;5073219;28;20028;-65
2022/07/12 08:14:26;;;;;;;2.42;1.50;;;;;;;;;;5072854;28;20024;-64
2022/07/12 08:16:51;;;;;;;3.80;2.00;;;;;;;;;;5074012;28;20848;-64
2022/07/12 08:19:17;;;;;;;1.67;1.25;;;;;;;;;;5073013;28;20041;-65
2022/07/12 08:21:42;;;;;;;1.67;1.58;;;;;;;;;;5075378;28;20024;-65
2022/07/12 08:24:07;;;;;;;2.63;1.20;;;;;;;;;;5074321;28;20319;-64
2022/07/12 08:26:32;;;;;;;1.50;1.27;;;;;;;;;;5072876;28;20016;-64
2022/07/12 08:28:58;;;;;;;3.00;1.27;;;;;;;;;;5074544;28;20024;-64
2022/07/12 08:31:23;;;;;;;3.40;1.42;;;;;;;;;;5073952;28;20418;-63
2022/07/12 08:33:49;;;;;;;1.38;1.27;;;;;;;;;;5074035;28;20459;-64
2022/07/12 08:36:14;;;;;;;1.20;1.20;;;;;;;;;;5075896;28;20025;-64
2022/07/12 08:38:43;;;;;;;2.45;1.30;;;;;;;;;;5065185;28;20510;-65
2022/07/12 08:41:10;;;;;;;1.75;1.30;;;;;;;;;;5037709;28;20091;-65
2022/07/12 08:43:36;;;;;;;2.08;1.45;;;;;;;;;;5053915;28;20733;-65
2022/07/12 08:46:02;;;;;;;1.40;1.30;;;;;;;;;;5054101;28;20028;-65
2022/07/12 08:48:27;;;;;;;2.85;1.55;;;;;;;;;;5052567;28;20052;-65
2022/07/12 08:51:22;;;;;;;1.50;1.38;;;;;;;;;;5052206;28;20028;-64
2022/07/12 08:54:04;;;;;;;1.38;1.30;;;;;;;;;;5029311;28;20040;-65
2022/07/12 08:56:33;;;;;;;1.83;1.58;;;;;;;;;;5052766;28;20028;-63
2022/07/12 08:59:08;;;;;;;2.70;1.40;;;;;;;;;;5052924;28;20106;-64
2022/07/12 09:01:50;;;;;;;1.30;1.30;;;;;;;;;;5052882;28;20094;-62
2022/07/12 09:04:16;;;;;;;1.60;1.50;;;;;;;;;;5033675;28;20032;-63
2022/07/12 09:06:42;;;;;;;1.65;1.55;;;;;;;;;;5036176;28;20029;-63
2022/07/12 09:09:08;;;;;;;1.85;1.50;;;;;;;;;;5052636;28;20036;-63
2022/07/12 09:11:35;;;;;;;1.80;1.70;;;;;;;;;;5053167;28;20648;-64
2022/07/12 09:14:02;;;;;;;1.80;1.48;;;;;;;;;;5052344;28;20047;-64
2022/07/12 09:16:27;;;;;;;4.68;1.50;;;;;;;;;;5053028;28;20029;-63
2022/07/12 09:19:11;;;;;;;1.55;1.40;;;;;;;;;;5055018;28;20021;-63
2022/07/12 09:21:36;;;;;;;6.13;2.30;;;;;;;;;;5035535;28;20039;-66
2022/07/12 09:24:01;;;;;;;3.92;3.17;;;;;;;;;;5052631;28;20454;-64
2022/07/12 09:26:34;;;;;;;1.58;1.48;;;;;;;;;;5051625;28;20037;-63
2022/07/12 09:29:06;;;;;;;1.90;1.63;;;;;;;;;;5053012;28;20454;-64
2022/07/12 09:36:06;;;;;;;5.63;2.40;;;;;;;;;;5053749;28;20114;-64
2022/07/12 09:37:12;;;;;;;1.70;1.60;;;;;;;;;;5051600;28;20051;-64
2022/07/12 09:39:38;;;;;;;2.08;1.95;;;;;;;;;;5051673;28;20494;-65
2022/07/12 09:42:03;;;;;;;1.63;1.52;;;;;;;;;;5044223;28;20119;-65
2022/07/12 09:44:30;;;;;;;1.98;1.88;;;;;;;;;;5051596;28;20111;-63
2022/07/12 09:46:57;;;;;;;3.47;1.80;;;;;;;;;;5051910;28;20063;-64
2022/07/12 09:49:23;;;;;;;1.63;1.48;;;;;;;;;;5051494;28;20486;-64
2022/07/12 09:51:49;;;;;;;3.17;2.15;;;;;;;;;;5051301;28;20051;-65
2022/07/12 09:54:19;;;;;;;1.60;1.50;;;;;;;;;;5053113;28;20476;-65
2022/07/12 09:56:47;;;;;;;1.98;1.88;;;;;;;;;;5038037;28;20103;-65
2022/07/12 09:59:13;;;;;;;1.77;1.67;;;;;;;;;;5038614;28;20039;-64
2022/07/12 10:01:38;;;;;;;1.63;1.52;;;;;;;;;;5052719;28;20040;-64
2022/07/12 10:04:05;;;;;;;5.20;1.60;;;;;;;;;;5053206;28;20042;-64
2022/07/12 10:06:30;;;;;;;2.10;1.73;;;;;;;;;;5050644;28;20079;-65
2022/07/12 10:08:56;;;;;;;3.13;1.95;;;;;;;;;;5051830;28;20021;-64
2022/07/12 10:11:24;;;;;;;2.90;2.20;;;;;;;;;;5037743;28;20024;-64
2022/07/12 10:13:50;;;;;;;1.98;1.88;;;;;;;;;;5051781;28;20079;-65
2022/07/12 10:16:18;;;;;;;1.95;1.85;;;;;;;;;;5051916;28;20497;-64
2022/07/12 10:18:43;;;;;;;5.13;2.22;;;;;;;;;;5050776;28;20027;-65
2022/07/12 10:21:23;;;;;;;4.63;1.85;;;;;;;;;;5052957;28;20033;-64
2022/07/12 10:23:48;;;;;;;2.22;1.40;;;;;;;;;;5053852;28;20346;-64
2022/07/12 10:26:14;;;;;;;3.35;1.48;;;;;;;;;;5034448;28;20022;-64
2022/07/12 10:28:56;;;;;;;2.92;1.58;;;;;;;;;;5051306;28;20135;-65
2022/07/12 10:31:23;;;;;;;4.47;2.05;;;;;;;;;;5052702;28;20028;-66
2022/07/12 10:33:58;;;;;;;2.13;1.90;;;;;;;;;;5052467;28;20028;-64
2022/07/12 10:36:23;;;;;;;2.40;1.58;;;;;;;;;;5052491;28;20122;-65
2022/07/12 10:39:09;;;;;;;1.70;1.60;;;;;;;;;;5057143;28;20088;-66
2022/07/12 10:41:34;;;;;;;;;;;;;;;;;;5057204;28;20045;-65
2022/07/12 10:44:05;;;;;;;1.90;1.80;;;;;;;;;;5057692;28;19999;-65
2022/07/12 10:46:33;;;;;;;4.07;1.52;;;;;;;;;;5038258;28;20835;-66
2022/07/12 10:49:17;;;;;;;2.05;1.88;;;;;;;;;;5041713;28;20040;-65
2022/07/12 10:52:02;;;;;;;1.60;1.50;;;;;;;;;;5055334;28;20082;-65
2022/07/12 10:54:28;;;;;;;;;;;;;;;;;;5056609;28;20564;-64
2022/07/12 10:56:56;;;;;;;1.95;1.50;;;;;;;;;;5055974;28;20559;-66
2022/07/12 10:59:23;;;;;;;1.60;1.50;;;;;;;;;;5055197;28;20025;-65
2022/07/12 11:01:51;;;;;;;1.67;1.58;;;;;;;;;;5056416;28;20374;-66
2022/07/12 11:04:16;;;;;;;1.83;1.40;;;;;;;;;;5041235;28;20034;-64
2022/07/12 11:06:41;;;;;;;3.05;1.60;;;;;;;;;;5057000;28;20028;-65
2022/07/12 11:09:08;;;;;;;2.00;1.65;;;;;;;;;;5037624;28;20029;-65
2022/07/12 11:11:34;;;;;;;2.50;1.50;;;;;;;;;;5054354;28;20055;-64
2022/07/12 11:14:00;;;;;;;2.38;1.48;;;;;;;;;;5054090;28;20112;-64
2022/07/12 11:16:26;;;;;;;2.20;1.45;;;;;;;;;;5055249;28;20530;-64
2022/07/12 11:18:52;;;;;;;1.77;1.52;;;;;;;;;;5053685;28;20413;-65
2022/07/12 11:21:18;;;;;;;2.03;1.88;;;;;;;;;;5054907;28;20025;-64
2022/07/12 11:23:44;;;;;;;1.60;1.50;;;;;;;;;;5055907;28;20020;-65
2022/07/12 11:26:10;;;;;;;2.53;1.70;;;;;;;;;;5047360;28;20585;-66
2022/07/12 11:28:36;;;;;;;1.35;1.30;;;;;;;;;;5057640;28;20020;-65
2022/07/12 11:31:07;;;;;;;1.95;1.70;;;;;;;;;;5055386;28;20462;-65
2022/07/12 11:33:34;;;;;;;1.60;1.50;;;;;;;;;;5055354;28;20121;-65
2022/07/12 11:36:03;;;;;;;2.47;1.60;;;;;;;;;;5052989;28;20029;-65
2022/07/12 11:38:29;;;;;;;2.10;1.63;;;;;;;;;;5049999;28;20944;-65
2022/07/12 11:40:56;;;;;;;1.67;1.60;;;;;;;;;;5075884;28;20032;-64
2022/07/12 11:43:21;;;;;;;1.80;1.60;;;;;;;;;;5074851;28;20397;-64
2022/07/12 11:45:46;;;;;;;2.47;2.28;;;;;;;;;;5077274;28;20032;-64
2022/07/12 11:48:12;;;;;;;2.10;1.90;;;;;;;;;;5074869;28;20024;-65
2022/07/12 11:50:42;;;;;;;3.47;2.05;;;;;;;;;;5076803;28;20043;-65
2022/07/12 11:53:14;;;;;;;5.25;2.38;;;;;;;;;;5073545;28;20043;-65
2022/07/12 11:55:46;;;;;;;2.75;1.90;;;;;;;;;;5074391;28;20024;-65
2022/07/12 11:58:13;;;;;;;2.28;1.60;;;;;;;;;;5074790;28;20586;-64
2022/07/12 12:00:38;;;;;;;1.90;1.80;;;;;;;;;;5074047;28;20037;-65
2022/07/12 12:03:04;;;;;;;1.85;1.58;;;;;;;;;;5075329;28;20549;-65
2022/07/12 12:05:29;;;;;;;1.60;1.50;;;;;;;;;;5074223;28;20052;-65
2022/07/12 12:07:55;;;;;;;2.50;1.75;;;;;;;;;;5073002;28;20064;-64
2022/07/12 12:10:20;;;;;;;5.15;1.55;;;;;;;;;;5076129;28;20055;-67
2022/07/12 12:12:45;;;;;;;2.95;1.77;;;;;;;;;;5073544;28;20043;-63
2022/07/12 12:15:12;;;;;;;2.40;1.60;;;;;;;;;;5073465;28;20029;-65
2022/07/12 12:17:42;;;;;;;3.72;2.55;;;;;;;;;;5074728;28;20024;-66
2022/07/12 12:20:08;;;;;;;5.40;1.90;;;;;;;;;;5075528;28;20038;-64
2022/07/12 12:22:34;;;;;;;1.73;1.63;;;;;;;;;;5073917;28;20036;-64
2022/07/12 12:24:59;;;;;;;2.95;1.73;;;;;;;;;;5074691;28;20044;-64
2022/07/12 12:27:25;;;;;;;2.53;1.58;;;;;;;;;;5073558;28;20125;-64
2022/07/12 12:29:53;;;;;;;1.60;1.50;;;;;;;;;;5073014;28;20029;-64
2022/07/12 12:32:18;;;;;;;1.67;1.58;;;;;;;;;;5074070;28;20044;-65
2022/07/12 12:35:02;;;;;;;1.70;1.60;;;;;;;;;;5072109;28;20028;-65
2022/07/12 12:37:28;;;;;;;2.75;1.65;;;;;;;;;;5072679;28;20028;-64
2022/07/12 12:39:53;;;;;;;1.88;1.50;;;;;;;;;;5053607;28;20099;-65
2022/07/12 12:42:23;;;;;;;4.47;1.95;;;;;;;;;;5037167;28;20355;-64
2022/07/12 12:44:48;;;;;;;2.25;1.98;;;;;;;;;;5052806;28;20349;-66
2022/07/12 12:47:32;;;;;;;1.48;1.38;;;;;;;;;;5053931;28;20037;-64
2022/07/12 12:49:57;;;;;;;2.15;1.95;;;;;;;;;;5052657;28;20063;-64
2022/07/12 12:52:26;;;;;;;3.22;2.03;;;;;;;;;;5036146;28;20609;-64
2022/07/12 12:54:52;;;;;;;1.70;1.60;;;;;;;;;;5051971;28;20017;-64
2022/07/12 12:57:17;;;;;;;1.70;1.35;;;;;;;;;;5054263;28;20115;-64
2022/07/12 12:59:42;;;;;;;1.58;1.50;;;;;;;;;;5053179;28;20196;-64
2022/07/12 13:02:08;;;;;;;3.47;1.90;;;;;;;;;;5052340;28;20029;-64
2022/07/12 13:04:34;;;;;;;2.13;1.50;;;;;;;;;;5054570;28;20055;-64
2022/07/12 13:06:59;;;;;;;2.65;1.90;;;;;;;;;;5051989;28;20375;-64
2022/07/12 13:09:25;;;;;;;3.40;1.63;;;;;;;;;;5053938;28;20024;-65
2022/07/12 13:11:50;;;;;;;4.85;1.77;;;;;;;;;;5035740;28;20068;-65
2022/07/12 13:14:15;;;;;;;1.60;1.50;;;;;;;;;;5052761;28;20107;-65
2022/07/12 13:16:41;;;;;;;2.47;1.40;;;;;;;;;;5051924;28;20476;-64
2022/07/12 13:19:07;;;;;;;1.52;1.42;;;;;;;;;;5036269;28;20033;-64
2022/07/12 13:21:32;;;;;;;4.43;2.28;;;;;;;;;;5035778;28;20067;-64
2022/07/12 13:23:57;;;;;;;1.85;1.70;;;;;;;;;;5051870;28;20033;-64
2022/07/12 13:26:23;;;;;;;1.52;1.38;;;;;;;;;;5052968;28;20021;-65
2022/07/12 13:28:48;;;;;;;1.58;1.40;;;;;;;;;;5053570;28;20032;-64
2022/07/12 13:31:13;;;;;;;1.65;1.55;;;;;;;;;;5053413;28;20591;-65
2022/07/12 13:33:38;;;;;;;1.88;1.75;;;;;;;;;;5050858;28;20494;-64
2022/07/12 13:36:04;;;;;;;1.65;1.60;;;;;;;;;;5051542;28;20039;-64
2022/07/12 13:38:29;;;;;;;3.92;2.20;;;;;;;;;;5051893;28;20088;-65
2022/07/12 13:40:54;;;;;;;1.70;1.40;;;;;;;;;;5051276;28;20032;-64
2022/07/12 13:43:20;;;;;;;1.73;1.63;;;;;;;;;;5051849;28;20024;-64
2022/07/12 13:45:46;;;;;;;1.55;1.40;;;;;;;;;;5052529;28;20567;-64
2022/07/12 13:48:11;;;;;;;3.60;1.48;;;;;;;;;;5052830;28;20031;-65
2022/07/12 13:50:38;;;;;;;3.80;2.22;;;;;;;;;;5050921;28;20544;-66
2022/07/12 13:53:03;;;;;;;3.60;1.80;;;;;;;;;;5051918;28;20059;-64
2022/07/12 13:55:31;;;;;;;1.40;1.30;;;;;;;;;;5039667;28;20470;-64
2022/07/12 13:57:56;;;;;;;1.83;1.67;;;;;;;;;;5021861;28;20054;-64
2022/07/12 14:00:21;;;;;;;1.70;1.60;;;;;;;;;;5052372;28;20434;-64
2022/07/12 14:02:47;;;;;;;2.45;1.40;;;;;;;;;;5051219;28;20032;-64
2022/07/12 14:05:13;;;;;;;3.75;1.77;;;;;;;;;;5052727;28;20051;-64
2022/07/12 14:07:39;;;;;;;2.67;1.48;;;;;;;;;;5053139;28;20394;-64
2022/07/12 14:10:05;;;;;;;1.83;1.70;;;;;;;;;;5043418;28;20481;-64
2022/07/12 14:12:32;;;;;;;4.20;1.70;;;;;;;;;;5050385;28;20039;-64
2022/07/12 14:17:34;;;;;;;1.80;1.70;;;;;;;;;;5051573;28;20471;-63
2022/07/12 14:20:00;;;;;;;2.45;1.73;;;;;;;;;;5053476;28;20086;-64
2022/07/12 14:22:25;;;;;;;2.58;1.77;;;;;;;;;;5050832;28;20037;-64
2022/07/12 14:24:50;;;;;;;1.60;1.50;;;;;;;;;;5050178;28;20083;-64
2022/07/12 14:27:16;;;;;;;2.08;1.65;;;;;;;;;;5051513;28;20055;-64
2022/07/12 14:29:41;;;;;;;5.07;2.05;;;;;;;;;;5034541;28;20037;-64
2022/07/12 14:32:06;;;;;;;1.90;1.80;;;;;;;;;;5052537;28;20047;-64
2022/07/12 14:34:32;;;;;;;1.92;1.75;;;;;;;;;;5018440;28;20033;-64
2022/07/12 14:36:57;;;;;;;1.60;1.50;;;;;;;;;;5050657;28;20339;-64
2022/07/12 14:39:22;;;;;;;1.88;1.77;;;;;;;;;;5049788;28;20057;-63
2022/07/12 14:41:47;;;;;;;3.35;1.60;;;;;;;;;;5050923;28;20091;-63
2022/07/12 14:44:13;;;;;;;3.17;1.83;;;;;;;;;;5050831;28;20087;-65
2022/07/12 14:46:38;;;;;;;1.77;1.60;;;;;;;;;;5051379;28;20067;-64
2022/07/12 14:49:04;;;;;;;2.60;2.40;;;;;;;;;;5051419;28;20036;-64
2022/07/12 14:51:29;;;;;;;1.73;1.40;;;;;;;;;;5051772;28;20036;-64